sensor_id;sensor_type;location;lat;lon;timestamp;temperature;humidity
78184;DHT22;67442;44.570;18.610;2023-03-17T00:01:56;21.70;58.70
78184;DHT22;67442;44.570;18.610;2023-03-17T00:04:27;21.70;58.70
78184;DHT22;67442;44.570;18.610;2023-03-17T00:06:54;21.70;58.70
78184;DHT22;67442;44.570;18.610;2023-03-17T00:09:22;21.70;58.70
78184;DHT22;67442;44.570;18.610;2023-03-17T00:11:50;21.70;58.70
78184;DHT22;67442;44.570;18.610;2023-03-17T00:14:21;21.70;58.70
78184;DHT22;67442;44.570;18.610;2023-03-17T00:16:50;21.70;58.70
78184;DHT22;67442;44.570;18.610;2023-03-17T00:19:28;21.70;58.70
78184;DHT22;67442;44.570;18.610;2023-03-17T00:21:57;21.70;58.70
78184;DHT22;67442;44.570;18.610;2023-03-17T00:24:25;21.70;58.80
78184;DHT22;67442;44.570;18.610;2023-03-17T00:26:53;21.70;58.80
78184;DHT22;67442;44.570;18.610;2023-03-17T00:29:20;21.70;58.80
78184;DHT22;67442;44.570;18.610;2023-03-17T00:31:48;21.70;58.80
78184;DHT22;67442;44.570;18.610;2023-03-17T00:34:17;21.70;58.90
78184;DHT22;67442;44.570;18.610;2023-03-17T00:36:49;21.70;58.90
78184;DHT22;67442;44.570;18.610;2023-03-17T00:39:17;21.70;58.90
78184;DHT22;67442;44.570;18.610;2023-03-17T00:41:44;21.70;58.90
78184;DHT22;67442;44.570;18.610;2023-03-17T00:44:15;21.70;58.90
78184;DHT22;67442;44.570;18.610;2023-03-17T00:46:42;21.70;58.90
78184;DHT22;67442;44.570;18.610;2023-03-17T00:49:17;21.70;58.90
78184;DHT22;67442;44.570;18.610;2023-03-17T00:51:44;21.70;59.00
78184;DHT22;67442;44.570;18.610;2023-03-17T00:54:12;21.70;59.00
78184;DHT22;67442;44.570;18.610;2023-03-17T00:56:40;21.70;59.10
78184;DHT22;67442;44.570;18.610;2023-03-17T01:01:40;21.60;59.00
78184;DHT22;67442;44.570;18.610;2023-03-17T01:04:09;21.60;59.00
78184;DHT22;67442;44.570;18.610;2023-03-17T01:06:36;21.60;59.10
78184;DHT22;67442;44.570;18.610;2023-03-17T01:09:04;21.60;59.10
78184;DHT22;67442;44.570;18.610;2023-03-17T01:11:36;21.60;59.10
78184;DHT22;67442;44.570;18.610;2023-03-17T01:14:03;21.60;59.20
78184;DHT22;67442;44.570;18.610;2023-03-17T01:16:31;21.60;59.20
78184;DHT22;67442;44.570;18.610;2023-03-17T01:18:58;21.60;59.20
78184;DHT22;67442;44.570;18.610;2023-03-17T01:21:25;21.70;59.30
78184;DHT22;67442;44.570;18.610;2023-03-17T01:23:56;21.60;59.20
78184;DHT22;67442;44.570;18.610;2023-03-17T01:26:23;21.60;59.20
78184;DHT22;67442;44.570;18.610;2023-03-17T01:28:50;21.70;59.30
78184;DHT22;67442;44.570;18.610;2023-03-17T01:31:18;21.60;59.30
78184;DHT22;67442;44.570;18.610;2023-03-17T01:33:46;21.60;59.20
78184;DHT22;67442;44.570;18.610;2023-03-17T01:36:13;21.60;59.20
78184;DHT22;67442;44.570;18.610;2023-03-17T01:38:45;21.60;59.20
78184;DHT22;67442;44.570;18.610;2023-03-17T01:41:19;21.60;59.20
78184;DHT22;67442;44.570;18.610;2023-03-17T01:43:46;21.60;59.20
78184;DHT22;67442;44.570;18.610;2023-03-17T01:51:48;21.60;59.30
78184;DHT22;67442;44.570;18.610;2023-03-17T01:54:17;21.60;59.30
78184;DHT22;67442;44.570;18.610;2023-03-17T01:56:49;21.60;59.30
78184;DHT22;67442;44.570;18.610;2023-03-17T01:59:24;21.60;59.30
78184;DHT22;67442;44.570;18.610;2023-03-17T02:01:58;21.60;59.30
78184;DHT22;67442;44.570;18.610;2023-03-17T02:04:28;21.60;59.40
78184;DHT22;67442;44.570;18.610;2023-03-17T02:06:55;21.60;59.30
78184;DHT22;67442;44.570;18.610;2023-03-17T02:09:26;21.60;59.40
78184;DHT22;67442;44.570;18.610;2023-03-17T02:11:54;21.60;59.40
78184;DHT22;67442;44.570;18.610;2023-03-17T02:14:21;21.60;59.40
78184;DHT22;67442;44.570;18.610;2023-03-17T02:16:52;21.60;59.40
78184;DHT22;67442;44.570;18.610;2023-03-17T02:19:22;21.60;59.40
78184;DHT22;67442;44.570;18.610;2023-03-17T02:21:53;21.60;59.40
78184;DHT22;67442;44.570;18.610;2023-03-17T02:24:52;21.60;59.40
78184;DHT22;67442;44.570;18.610;2023-03-17T02:27:25;21.60;59.40
78184;DHT22;67442;44.570;18.610;2023-03-17T02:29:52;21.60;59.50
78184;DHT22;67442;44.570;18.610;2023-03-17T02:32:19;21.60;60.10
78184;DHT22;67442;44.570;18.610;2023-03-17T02:34:50;21.60;59.40
78184;DHT22;67442;44.570;18.610;2023-03-17T02:37:19;21.60;59.40
78184;DHT22;67442;44.570;18.610;2023-03-17T02:39:47;21.60;59.50
78184;DHT22;67442;44.570;18.610;2023-03-17T02:42:18;21.50;59.50
78184;DHT22;67442;44.570;18.610;2023-03-17T02:44:45;21.60;59.60
78184;DHT22;67442;44.570;18.610;2023-03-17T02:47:13;21.60;59.50
78184;DHT22;67442;44.570;18.610;2023-03-17T02:49:41;21.60;59.60
78184;DHT22;67442;44.570;18.610;2023-03-17T02:52:12;21.50;59.60
78184;DHT22;67442;44.570;18.610;2023-03-17T02:54:39;21.50;59.60
78184;DHT22;67442;44.570;18.610;2023-03-17T02:57:07;21.60;59.70
78184;DHT22;67442;44.570;18.610;2023-03-17T02:59:35;21.60;59.70
78184;DHT22;67442;44.570;18.610;2023-03-17T03:02:01;21.60;59.70
78184;DHT22;67442;44.570;18.610;2023-03-17T03:04:29;21.60;59.70
78184;DHT22;67442;44.570;18.610;2023-03-17T03:06:56;21.50;59.70
78184;DHT22;67442;44.570;18.610;2023-03-17T03:09:24;21.50;59.70
78184;DHT22;67442;44.570;18.610;2023-03-17T03:11:50;21.60;59.80
78184;DHT22;67442;44.570;18.610;2023-03-17T03:14:17;21.50;59.80
78184;DHT22;67442;44.570;18.610;2023-03-17T03:16:49;21.50;59.80
78184;DHT22;67442;44.570;18.610;2023-03-17T03:19:16;21.60;59.90
78184;DHT22;67442;44.570;18.610;2023-03-17T03:21:43;21.60;59.90
78184;DHT22;67442;44.570;18.610;2023-03-17T03:24:11;21.60;59.90
78184;DHT22;67442;44.570;18.610;2023-03-17T03:26:38;21.50;59.90
78184;DHT22;67442;44.570;18.610;2023-03-17T03:29:09;21.50;59.90
78184;DHT22;67442;44.570;18.610;2023-03-17T03:31:37;21.50;60.00
78184;DHT22;67442;44.570;18.610;2023-03-17T03:34:08;21.50;59.90
78184;DHT22;67442;44.570;18.610;2023-03-17T03:36:35;21.50;60.00
78184;DHT22;67442;44.570;18.610;2023-03-17T03:39:06;21.50;60.00
78184;DHT22;67442;44.570;18.610;2023-03-17T03:41:34;21.50;60.00
78184;DHT22;67442;44.570;18.610;2023-03-17T03:44:00;21.50;60.00
78184;DHT22;67442;44.570;18.610;2023-03-17T03:46:27;21.50;60.00
78184;DHT22;67442;44.570;18.610;2023-03-17T03:48:54;21.50;60.00
78184;DHT22;67442;44.570;18.610;2023-03-17T03:51:21;21.50;60.00
78184;DHT22;67442;44.570;18.610;2023-03-17T03:53:48;21.50;60.00
78184;DHT22;67442;44.570;18.610;2023-03-17T03:56:15;21.60;60.00
78184;DHT22;67442;44.570;18.610;2023-03-17T03:58:43;21.50;60.00
78184;DHT22;67442;44.570;18.610;2023-03-17T04:01:14;21.50;60.00
78184;DHT22;67442;44.570;18.610;2023-03-17T04:03:45;21.50;60.00
78184;DHT22;67442;44.570;18.610;2023-03-17T04:06:13;21.50;60.00
78184;DHT22;67442;44.570;18.610;2023-03-17T04:08:40;21.50;60.00
78184;DHT22;67442;44.570;18.610;2023-03-17T04:11:07;21.50;60.00
78184;DHT22;67442;44.570;18.610;2023-03-17T04:13:38;21.50;60.00
78184;DHT22;67442;44.570;18.610;2023-03-17T04:16:06;21.50;60.00
78184;DHT22;67442;44.570;18.610;2023-03-17T04:18:34;21.50;60.00
78184;DHT22;67442;44.570;18.610;2023-03-17T04:21:01;21.50;60.80
78184;DHT22;67442;44.570;18.610;2023-03-17T04:23:28;21.50;60.00
78184;DHT22;67442;44.570;18.610;2023-03-17T04:25:57;21.50;60.00
78184;DHT22;67442;44.570;18.610;2023-03-17T04:28:24;21.50;60.00
78184;DHT22;67442;44.570;18.610;2023-03-17T04:30:51;21.40;60.00
78184;DHT22;67442;44.570;18.610;2023-03-17T04:33:19;21.50;60.00
78184;DHT22;67442;44.570;18.610;2023-03-17T04:35:46;21.50;60.00
78184;DHT22;67442;44.570;18.610;2023-03-17T04:38:14;21.50;60.10
78184;DHT22;67442;44.570;18.610;2023-03-17T04:40:41;21.50;60.00
78184;DHT22;67442;44.570;18.610;2023-03-17T04:43:09;21.50;60.00
78184;DHT22;67442;44.570;18.610;2023-03-17T04:45:40;21.50;60.00
78184;DHT22;67442;44.570;18.610;2023-03-17T04:48:11;21.50;60.10
78184;DHT22;67442;44.570;18.610;2023-03-17T04:50:38;21.50;60.00
78184;DHT22;67442;44.570;18.610;2023-03-17T04:53:06;21.50;60.10
78184;DHT22;67442;44.570;18.610;2023-03-17T04:55:36;21.50;60.10
78184;DHT22;67442;44.570;18.610;2023-03-17T04:58:03;21.50;60.20
78184;DHT22;67442;44.570;18.610;2023-03-17T05:00:30;21.50;60.20
78184;DHT22;67442;44.570;18.610;2023-03-17T05:03:05;21.50;60.20
78184;DHT22;67442;44.570;18.610;2023-03-17T05:05:35;21.50;60.20
78184;DHT22;67442;44.570;18.610;2023-03-17T05:08:02;21.50;60.20
78184;DHT22;67442;44.570;18.610;2023-03-17T05:10:29;21.50;60.30
78184;DHT22;67442;44.570;18.610;2023-03-17T05:12:56;21.50;60.30
78184;DHT22;67442;44.570;18.610;2023-03-17T05:15:23;21.50;60.30
78184;DHT22;67442;44.570;18.610;2023-03-17T05:17:55;21.50;60.30
78184;DHT22;67442;44.570;18.610;2023-03-17T05:20:22;21.50;60.30
78184;DHT22;67442;44.570;18.610;2023-03-17T05:22:50;21.50;60.40
78184;DHT22;67442;44.570;18.610;2023-03-17T05:25:17;21.50;60.40
78184;DHT22;67442;44.570;18.610;2023-03-17T05:27:45;21.50;60.30
78184;DHT22;67442;44.570;18.610;2023-03-17T05:30:13;21.50;60.40
78184;DHT22;67442;44.570;18.610;2023-03-17T05:32:41;21.50;60.40
78184;DHT22;67442;44.570;18.610;2023-03-17T05:35:09;21.50;60.30
78184;DHT22;67442;44.570;18.610;2023-03-17T05:37:40;21.50;60.40
78184;DHT22;67442;44.570;18.610;2023-03-17T05:40:10;21.50;60.40
78184;DHT22;67442;44.570;18.610;2023-03-17T05:42:37;21.50;60.50
78184;DHT22;67442;44.570;18.610;2023-03-17T05:45:05;21.50;60.60
78184;DHT22;67442;44.570;18.610;2023-03-17T05:47:34;21.50;60.60
78184;DHT22;67442;44.570;18.610;2023-03-17T05:50:05;21.50;60.90
78184;DHT22;67442;44.570;18.610;2023-03-17T05:52:33;21.50;61.20
78184;DHT22;67442;44.570;18.610;2023-03-17T05:55:01;21.50;61.50
78184;DHT22;67442;44.570;18.610;2023-03-17T05:57:28;21.50;61.70
78184;DHT22;67442;44.570;18.610;2023-03-17T05:59:55;21.50;61.70
78184;DHT22;67442;44.570;18.610;2023-03-17T06:02:22;21.50;61.70
78184;DHT22;67442;44.570;18.610;2023-03-17T06:04:49;21.40;61.60
78184;DHT22;67442;44.570;18.610;2023-03-17T06:07:17;21.40;61.40
78184;DHT22;67442;44.570;18.610;2023-03-17T06:09:46;21.50;61.40
78184;DHT22;67442;44.570;18.610;2023-03-17T06:12:13;21.40;61.10
78184;DHT22;67442;44.570;18.610;2023-03-17T06:14:41;21.40;61.00
78184;DHT22;67442;44.570;18.610;2023-03-17T06:17:08;21.40;60.80
78184;DHT22;67442;44.570;18.610;2023-03-17T06:19:37;21.40;60.70
78184;DHT22;67442;44.570;18.610;2023-03-17T06:22:05;21.40;60.60
78184;DHT22;67442;44.570;18.610;2023-03-17T06:24:33;21.40;60.60
78184;DHT22;67442;44.570;18.610;2023-03-17T06:27:00;21.40;60.40
78184;DHT22;67442;44.570;18.610;2023-03-17T06:29:27;21.40;60.30
78184;DHT22;67442;44.570;18.610;2023-03-17T06:31:54;21.40;60.20
78184;DHT22;67442;44.570;18.610;2023-03-17T06:34:22;21.30;60.00
78184;DHT22;67442;44.570;18.610;2023-03-17T06:36:49;21.40;60.00
78184;DHT22;67442;44.570;18.610;2023-03-17T06:39:16;21.40;60.00
78184;DHT22;67442;44.570;18.610;2023-03-17T06:41:47;21.30;59.90
78184;DHT22;67442;44.570;18.610;2023-03-17T06:44:14;21.30;59.80
78184;DHT22;67442;44.570;18.610;2023-03-17T06:46:41;21.30;59.80
78184;DHT22;67442;44.570;18.610;2023-03-17T06:49:09;21.30;59.80
78184;DHT22;67442;44.570;18.610;2023-03-17T06:51:38;21.30;59.70
78184;DHT22;67442;44.570;18.610;2023-03-17T06:54:05;21.30;59.70
78184;DHT22;67442;44.570;18.610;2023-03-17T06:56:34;21.30;59.70
78184;DHT22;67442;44.570;18.610;2023-03-17T06:59:00;21.30;59.70
78184;DHT22;67442;44.570;18.610;2023-03-17T07:01:27;21.30;59.60
78184;DHT22;67442;44.570;18.610;2023-03-17T07:03:54;21.30;59.60
78184;DHT22;67442;44.570;18.610;2023-03-17T07:06:21;21.30;59.60
78184;DHT22;67442;44.570;18.610;2023-03-17T07:08:51;21.30;59.60
78184;DHT22;67442;44.570;18.610;2023-03-17T07:11:18;21.30;59.60
78184;DHT22;67442;44.570;18.610;2023-03-17T07:13:45;21.30;59.60
78184;DHT22;67442;44.570;18.610;2023-03-17T07:16:13;21.30;59.60
78184;DHT22;67442;44.570;18.610;2023-03-17T07:18:45;21.20;59.60
78184;DHT22;67442;44.570;18.610;2023-03-17T07:21:12;21.30;59.60
78184;DHT22;67442;44.570;18.610;2023-03-17T07:23:40;21.20;59.50
78184;DHT22;67442;44.570;18.610;2023-03-17T07:26:06;21.20;59.50
78184;DHT22;67442;44.570;18.610;2023-03-17T07:28:34;21.20;59.50
78184;DHT22;67442;44.570;18.610;2023-03-17T07:31:05;21.20;59.50
78184;DHT22;67442;44.570;18.610;2023-03-17T07:33:36;21.20;59.50
78184;DHT22;67442;44.570;18.610;2023-03-17T07:36:04;21.20;59.50
78184;DHT22;67442;44.570;18.610;2023-03-17T07:38:32;21.20;59.50
78184;DHT22;67442;44.570;18.610;2023-03-17T07:41:00;21.20;59.40
78184;DHT22;67442;44.570;18.610;2023-03-17T07:43:29;21.20;59.40
78184;DHT22;67442;44.570;18.610;2023-03-17T07:46:01;21.20;59.40
78184;DHT22;67442;44.570;18.610;2023-03-17T07:48:29;21.20;59.50
78184;DHT22;67442;44.570;18.610;2023-03-17T07:50:57;21.20;59.40
78184;DHT22;67442;44.570;18.610;2023-03-17T07:53:25;21.20;59.40
78184;DHT22;67442;44.570;18.610;2023-03-17T07:55:55;21.20;59.40
78184;DHT22;67442;44.570;18.610;2023-03-17T07:58:22;21.20;59.40
78184;DHT22;67442;44.570;18.610;2023-03-17T08:00:49;21.20;59.40
78184;DHT22;67442;44.570;18.610;2023-03-17T08:03:16;21.20;59.30
78184;DHT22;67442;44.570;18.610;2023-03-17T08:05:50;21.20;59.20
78184;DHT22;67442;44.570;18.610;2023-03-17T08:08:18;21.20;59.20
78184;DHT22;67442;44.570;18.610;2023-03-17T08:10:48;21.20;59.20
78184;DHT22;67442;44.570;18.610;2023-03-17T08:13:15;21.20;59.20
78184;DHT22;67442;44.570;18.610;2023-03-17T08:15:42;21.20;59.20
78184;DHT22;67442;44.570;18.610;2023-03-17T08:18:09;21.20;59.10
78184;DHT22;67442;44.570;18.610;2023-03-17T08:20:37;21.20;59.10
78184;DHT22;67442;44.570;18.610;2023-03-17T08:23:04;21.20;59.10
78184;DHT22;67442;44.570;18.610;2023-03-17T08:25:32;21.20;59.10
78184;DHT22;67442;44.570;18.610;2023-03-17T08:28:03;21.20;59.10
78184;DHT22;67442;44.570;18.610;2023-03-17T08:30:35;21.10;59.00
78184;DHT22;67442;44.570;18.610;2023-03-17T08:33:02;21.20;59.10
78184;DHT22;67442;44.570;18.610;2023-03-17T08:35:29;21.20;59.00
78184;DHT22;67442;44.570;18.610;2023-03-17T08:37:57;21.20;59.10
78184;DHT22;67442;44.570;18.610;2023-03-17T08:40:24;21.20;59.00
78184;DHT22;67442;44.570;18.610;2023-03-17T08:42:51;21.20;59.00
78184;DHT22;67442;44.570;18.610;2023-03-17T08:45:19;21.10;59.00
78184;DHT22;67442;44.570;18.610;2023-03-17T08:47:46;21.20;59.00
78184;DHT22;67442;44.570;18.610;2023-03-17T08:50:19;21.10;59.00
78184;DHT22;67442;44.570;18.610;2023-03-17T08:52:48;21.20;59.10
78184;DHT22;67442;44.570;18.610;2023-03-17T08:55:17;21.10;58.90
78184;DHT22;67442;44.570;18.610;2023-03-17T08:57:43;21.20;59.00
78184;DHT22;67442;44.570;18.610;2023-03-17T09:00:13;21.10;59.00
78184;DHT22;67442;44.570;18.610;2023-03-17T09:02:42;21.10;58.90
78184;DHT22;67442;44.570;18.610;2023-03-17T09:05:14;21.10;58.90
78184;DHT22;67442;44.570;18.610;2023-03-17T09:07:41;21.10;58.90
78184;DHT22;67442;44.570;18.610;2023-03-17T09:10:12;21.10;58.90
78184;DHT22;67442;44.570;18.610;2023-03-17T09:12:42;21.10;58.90
78184;DHT22;67442;44.570;18.610;2023-03-17T09:15:11;21.10;58.90
78184;DHT22;67442;44.570;18.610;2023-03-17T09:17:37;21.10;58.90
78184;DHT22;67442;44.570;18.610;2023-03-17T09:20:06;21.10;58.90
78184;DHT22;67442;44.570;18.610;2023-03-17T09:22:33;21.10;58.90
78184;DHT22;67442;44.570;18.610;2023-03-17T09:25:00;21.10;58.90
78184;DHT22;67442;44.570;18.610;2023-03-17T09:27:27;21.10;58.90
78184;DHT22;67442;44.570;18.610;2023-03-17T09:29:54;21.10;58.90
78184;DHT22;67442;44.570;18.610;2023-03-17T09:32:22;21.10;58.90
78184;DHT22;67442;44.570;18.610;2023-03-17T09:34:49;21.10;58.80
78184;DHT22;67442;44.570;18.610;2023-03-17T09:37:17;21.10;58.80
78184;DHT22;67442;44.570;18.610;2023-03-17T09:39:48;21.10;58.80
78184;DHT22;67442;44.570;18.610;2023-03-17T09:42:21;21.10;58.80
78184;DHT22;67442;44.570;18.610;2023-03-17T09:53:19;21.10;58.80
78184;DHT22;67442;44.570;18.610;2023-03-17T09:55:54;21.10;58.80
78184;DHT22;67442;44.570;18.610;2023-03-17T09:58:30;21.10;58.80
78184;DHT22;67442;44.570;18.610;2023-03-17T10:00:58;21.10;58.80
78184;DHT22;67442;44.570;18.610;2023-03-17T10:03:26;21.10;58.80
78184;DHT22;67442;44.570;18.610;2023-03-17T10:06:06;21.10;58.90
78184;DHT22;67442;44.570;18.610;2023-03-17T10:08:53;21.10;58.90
78184;DHT22;67442;44.570;18.610;2023-03-17T10:11:43;21.10;58.90
78184;DHT22;67442;44.570;18.610;2023-03-17T10:14:32;21.10;58.90
78184;DHT22;67442;44.570;18.610;2023-03-17T10:17:11;21.10;58.90
78184;DHT22;67442;44.570;18.610;2023-03-17T10:19:51;21.10;58.90
78184;DHT22;67442;44.570;18.610;2023-03-17T10:25:15;21.10;58.80
78184;DHT22;67442;44.570;18.610;2023-03-17T10:27:53;21.10;58.80
78184;DHT22;67442;44.570;18.610;2023-03-17T10:30:22;21.10;58.70
78184;DHT22;67442;44.570;18.610;2023-03-17T10:32:49;21.00;58.60
78184;DHT22;67442;44.570;18.610;2023-03-17T10:35:18;21.00;58.60
78184;DHT22;67442;44.570;18.610;2023-03-17T10:37:47;21.10;58.60
78184;DHT22;67442;44.570;18.610;2023-03-17T10:40:26;21.10;58.60
78184;DHT22;67442;44.570;18.610;2023-03-17T10:43:18;21.10;58.60
78184;DHT22;67442;44.570;18.610;2023-03-17T10:46:02;21.10;58.60
78184;DHT22;67442;44.570;18.610;2023-03-17T10:48:55;21.10;58.60
78184;DHT22;67442;44.570;18.610;2023-03-17T10:51:30;21.10;58.60
78184;DHT22;67442;44.570;18.610;2023-03-17T10:54:15;21.00;58.50
78184;DHT22;67442;44.570;18.610;2023-03-17T10:56:59;21.10;58.60
78184;DHT22;67442;44.570;18.610;2023-03-17T10:59:29;21.10;58.60
78184;DHT22;67442;44.570;18.610;2023-03-17T11:01:58;21.00;58.50
78184;DHT22;67442;44.570;18.610;2023-03-17T11:04:36;21.00;58.50
78184;DHT22;67442;44.570;18.610;2023-03-17T11:07:18;21.00;58.50
78184;DHT22;67442;44.570;18.610;2023-03-17T11:09:49;21.00;58.50
78184;DHT22;67442;44.570;18.610;2023-03-17T11:12:25;21.00;58.50
78184;DHT22;67442;44.570;18.610;2023-03-17T11:15:04;21.00;58.50
78184;DHT22;67442;44.570;18.610;2023-03-17T11:17:59;21.00;58.40
78184;DHT22;67442;44.570;18.610;2023-03-17T11:23:07;21.00;58.20
78184;DHT22;67442;44.570;18.610;2023-03-17T11:25:40;21.00;58.20
78184;DHT22;67442;44.570;18.610;2023-03-17T11:28:19;21.00;58.10
78184;DHT22;67442;44.570;18.610;2023-03-17T11:31:35;21.00;58.00
78184;DHT22;67442;44.570;18.610;2023-03-17T11:34:24;21.00;57.90
78184;DHT22;67442;44.570;18.610;2023-03-17T11:42:24;21.00;57.70
78184;DHT22;67442;44.570;18.610;2023-03-17T11:44:57;21.00;57.70
78184;DHT22;67442;44.570;18.610;2023-03-17T11:58:18;21.00;57.50
78184;DHT22;67442;44.570;18.610;2023-03-17T12:00:57;21.00;57.50
78184;DHT22;67442;44.570;18.610;2023-03-17T12:06:31;21.00;57.40
78184;DHT22;67442;44.570;18.610;2023-03-17T12:11:42;20.90;57.40
78184;DHT22;67442;44.570;18.610;2023-03-17T12:14:37;20.90;57.40
78184;DHT22;67442;44.570;18.610;2023-03-17T12:22:52;20.90;57.40
78184;DHT22;67442;44.570;18.610;2023-03-17T12:25:35;20.90;57.40
78184;DHT22;67442;44.570;18.610;2023-03-17T12:28:18;20.90;57.50
78184;DHT22;67442;44.570;18.610;2023-03-17T12:31:21;20.90;57.50
78184;DHT22;67442;44.570;18.610;2023-03-17T12:33:59;20.90;57.60
78184;DHT22;67442;44.570;18.610;2023-03-17T12:36:33;20.90;57.60
78184;DHT22;67442;44.570;18.610;2023-03-17T12:39:05;20.90;57.60
78184;DHT22;67442;44.570;18.610;2023-03-17T12:41:41;20.90;57.70
78184;DHT22;67442;44.570;18.610;2023-03-17T12:55:14;20.90;57.80
78184;DHT22;67442;44.570;18.610;2023-03-17T12:57:44;20.90;57.70
78184;DHT22;67442;44.570;18.610;2023-03-17T13:02:49;20.90;57.70
78184;DHT22;67442;44.570;18.610;2023-03-17T13:05:26;20.90;57.70
78184;DHT22;67442;44.570;18.610;2023-03-17T13:08:14;20.90;57.70
78184;DHT22;67442;44.570;18.610;2023-03-17T13:10:46;20.90;57.80
78184;DHT22;67442;44.570;18.610;2023-03-17T13:19:24;20.90;57.80
78184;DHT22;67442;44.570;18.610;2023-03-17T13:24:46;20.90;57.90
78184;DHT22;67442;44.570;18.610;2023-03-17T13:31:07;20.90;57.90
78184;DHT22;67442;44.570;18.610;2023-03-17T13:49:49;20.90;58.10
78184;DHT22;67442;44.570;18.610;2023-03-17T13:52:32;20.90;58.10
78184;DHT22;67442;44.570;18.610;2023-03-17T14:00:31;20.90;58.10
78184;DHT22;67442;44.570;18.610;2023-03-17T14:03:12;20.90;58.10
78184;DHT22;67442;44.570;18.610;2023-03-17T14:05:51;20.90;58.20
78184;DHT22;67442;44.570;18.610;2023-03-17T14:08:49;20.90;58.20
78184;DHT22;67442;44.570;18.610;2023-03-17T14:11:30;20.90;58.20
78184;DHT22;67442;44.570;18.610;2023-03-17T14:14:22;20.80;58.80
78184;DHT22;67442;44.570;18.610;2023-03-17T14:17:33;20.90;58.80
78184;DHT22;67442;44.570;18.610;2023-03-17T14:20:22;20.80;58.20
78184;DHT22;67442;44.570;18.610;2023-03-17T14:22:55;20.90;58.20
78184;DHT22;67442;44.570;18.610;2023-03-17T14:25:24;20.80;58.20
78184;DHT22;67442;44.570;18.610;2023-03-17T14:27:56;20.80;58.20
78184;DHT22;67442;44.570;18.610;2023-03-17T14:30:30;20.90;58.20
78184;DHT22;67442;44.570;18.610;2023-03-17T14:35:37;20.80;58.20
78184;DHT22;67442;44.570;18.610;2023-03-17T14:38:28;20.90;58.30
78184;DHT22;67442;44.570;18.610;2023-03-17T14:43:45;20.90;58.20
78184;DHT22;67442;44.570;18.610;2023-03-17T14:46:31;20.80;58.20
78184;DHT22;67442;44.570;18.610;2023-03-17T14:49:00;20.80;58.20
78184;DHT22;67442;44.570;18.610;2023-03-17T14:51:38;20.80;58.40
78184;DHT22;67442;44.570;18.610;2023-03-17T14:54:15;20.90;58.50
78184;DHT22;67442;44.570;18.610;2023-03-17T14:56:50;20.90;58.50
78184;DHT22;67442;44.570;18.610;2023-03-17T14:59:37;20.80;58.40
78184;DHT22;67442;44.570;18.610;2023-03-17T15:02:21;20.80;58.40
78184;DHT22;67442;44.570;18.610;2023-03-17T15:04:55;20.80;58.40
78184;DHT22;67442;44.570;18.610;2023-03-17T15:07:40;20.80;58.30
78184;DHT22;67442;44.570;18.610;2023-03-17T15:10:20;20.80;58.40
78184;DHT22;67442;44.570;18.610;2023-03-17T15:13:04;20.80;58.30
78184;DHT22;67442;44.570;18.610;2023-03-17T15:15:33;20.80;58.30
78184;DHT22;67442;44.570;18.610;2023-03-17T15:18:11;20.80;58.30
78184;DHT22;67442;44.570;18.610;2023-03-17T15:20:40;20.80;58.30
78184;DHT22;67442;44.570;18.610;2023-03-17T15:25:43;20.80;58.20
78184;DHT22;67442;44.570;18.610;2023-03-17T15:28:10;20.80;58.30
78184;DHT22;67442;44.570;18.610;2023-03-17T15:30:45;20.80;58.20
78184;DHT22;67442;44.570;18.610;2023-03-17T15:35:48;20.80;58.90
78184;DHT22;67442;44.570;18.610;2023-03-17T15:38:16;20.80;58.20
78184;DHT22;67442;44.570;18.610;2023-03-17T15:40:42;20.80;58.20
78184;DHT22;67442;44.570;18.610;2023-03-17T15:43:14;20.70;58.20
78184;DHT22;67442;44.570;18.610;2023-03-17T15:45:41;20.80;58.20
78184;DHT22;67442;44.570;18.610;2023-03-17T15:48:30;20.80;58.20
78184;DHT22;67442;44.570;18.610;2023-03-17T15:50:59;20.80;58.20
78184;DHT22;67442;44.570;18.610;2023-03-17T15:53:26;20.80;58.20
78184;DHT22;67442;44.570;18.610;2023-03-17T15:55:53;20.80;58.20
78184;DHT22;67442;44.570;18.610;2023-03-17T15:58:20;20.80;58.20
78184;DHT22;67442;44.570;18.610;2023-03-17T16:00:51;20.70;58.20
78184;DHT22;67442;44.570;18.610;2023-03-17T16:03:30;20.80;58.30
78184;DHT22;67442;44.570;18.610;2023-03-17T16:05:59;20.70;58.20
78184;DHT22;67442;44.570;18.610;2023-03-17T16:08:26;20.70;58.20
78184;DHT22;67442;44.570;18.610;2023-03-17T16:10:54;20.80;58.30
78184;DHT22;67442;44.570;18.610;2023-03-17T16:13:21;20.80;58.20
78184;DHT22;67442;44.570;18.610;2023-03-17T16:15:56;20.80;58.30
78184;DHT22;67442;44.570;18.610;2023-03-17T16:18:34;20.80;58.20
78184;DHT22;67442;44.570;18.610;2023-03-17T16:21:02;20.80;58.20
78184;DHT22;67442;44.570;18.610;2023-03-17T16:23:32;20.80;58.30
78184;DHT22;67442;44.570;18.610;2023-03-17T16:26:00;20.80;58.30
78184;DHT22;67442;44.570;18.610;2023-03-17T16:28:29;20.70;58.30
78184;DHT22;67442;44.570;18.610;2023-03-17T16:31:01;20.70;58.40
78184;DHT22;67442;44.570;18.610;2023-03-17T16:33:39;20.80;58.50
78184;DHT22;67442;44.570;18.610;2023-03-17T16:36:08;20.80;58.50
78184;DHT22;67442;44.570;18.610;2023-03-17T16:38:38;20.70;58.50
78184;DHT22;67442;44.570;18.610;2023-03-17T16:41:16;20.80;58.60
78184;DHT22;67442;44.570;18.610;2023-03-17T16:43:47;20.80;58.60
78184;DHT22;67442;44.570;18.610;2023-03-17T16:46:16;20.80;58.60
78184;DHT22;67442;44.570;18.610;2023-03-17T16:48:44;20.80;59.30
78184;DHT22;67442;44.570;18.610;2023-03-17T16:51:11;20.80;58.60
78184;DHT22;67442;44.570;18.610;2023-03-17T16:53:39;20.80;58.60
78184;DHT22;67442;44.570;18.610;2023-03-17T16:56:13;20.80;58.60
78184;DHT22;67442;44.570;18.610;2023-03-17T16:58:41;20.80;59.20
78184;DHT22;67442;44.570;18.610;2023-03-17T17:01:31;20.80;58.60
78184;DHT22;67442;44.570;18.610;2023-03-17T17:04:01;20.80;58.60
78184;DHT22;67442;44.570;18.610;2023-03-17T17:06:29;20.90;58.60
78184;DHT22;67442;44.570;18.610;2023-03-17T17:08:56;20.80;58.60
78184;DHT22;67442;44.570;18.610;2023-03-17T17:11:28;20.80;58.60
78184;DHT22;67442;44.570;18.610;2023-03-17T17:13:55;20.90;59.30
78184;DHT22;67442;44.570;18.610;2023-03-17T17:16:28;20.90;58.60
78184;DHT22;67442;44.570;18.610;2023-03-17T17:18:55;20.90;58.60
78184;DHT22;67442;44.570;18.610;2023-03-17T17:21:22;20.90;58.70
78184;DHT22;67442;44.570;18.610;2023-03-17T17:23:49;20.90;58.60
78184;DHT22;67442;44.570;18.610;2023-03-17T17:26:17;20.90;58.60
78184;DHT22;67442;44.570;18.610;2023-03-17T17:28:44;20.90;58.60